Time;durP1;ratioP1;P1;durP2;ratioP2;P2;SDS_P1;SDS_P2;PMS_P1;PMS_P2;Temp;Humidity;BMP_temperature;BMP_pressure;BME280_temperature;BME280_humidity;BME280_pressure;Samples;Min_cycle;Max_cycle;Signal;HPM_P1;HPM_P2
2022/09/09 00:00:18;;;;;;;2.95;1.10;;;16.60;82.10;;;;;;5073277;28;20033;-75
2022/09/09 00:02:58;;;;;;;1.45;1.05;;;16.70;81.40;;;;;;5073236;28;20029;-73
2022/09/09 00:05:36;;;;;;;3.30;1.20;;;16.80;80.90;;;;;;5072994;28;20049;-73
2022/09/09 00:08:06;;;;;;;3.60;1.50;;;16.90;80.10;;;;;;5073384;28;20485;-73
2022/09/09 00:10:39;;;;;;;3.60;1.23;;;16.80;80.10;;;;;;5073234;28;20048;-73
2022/09/09 00:13:30;;;;;;;3.78;1.42;;;16.70;80.20;;;;;;5073221;28;20017;-73
2022/09/09 00:16:03;;;;;;;2.67;1.30;;;16.80;80.00;;;;;;5073294;28;20031;-73
2022/09/09 00:18:35;;;;;;;2.80;1.10;;;16.90;79.60;;;;;;5073113;28;20017;-73
2022/09/09 00:21:17;;;;;;;1.50;1.38;;;16.90;79.20;;;;;;5073130;28;20029;-73
2022/09/09 00:23:51;;;;;;;2.80;1.17;;;16.90;78.90;;;;;;5073105;28;20029;-73
2022/09/09 00:26:25;;;;;;;3.60;1.23;;;16.90;78.90;;;;;;5073014;28;20067;-73
2022/09/09 00:28:55;;;;;;;3.60;1.63;;;16.90;78.90;;;;;;5073095;28;20029;-73
2022/09/09 00:31:26;;;;;;;1.88;1.40;;;16.90;78.90;;;;;;5073042;28;20017;-72
2022/09/09 00:33:54;;;;;;;3.97;1.40;;;16.90;78.80;;;;;;5073039;28;20100;-73
2022/09/09 00:36:25;;;;;;;3.33;1.50;;;17.00;78.60;;;;;;5072946;28;20112;-73
2022/09/09 00:39:00;;;;;;;2.22;1.45;;;16.90;78.40;;;;;;5072977;28;20025;-73
2022/09/09 00:41:35;;;;;;;2.67;1.60;;;16.90;78.50;;;;;;5072930;28;20495;-73
2022/09/09 00:44:18;;;;;;;2.05;1.40;;;16.90;78.40;;;;;;5072873;28;20025;-73
2022/09/09 00:47:05;;;;;;;2.05;1.55;;;16.90;78.60;;;;;;5072783;28;20044;-73
2022/09/09 00:50:12;;;;;;;3.20;1.52;;;16.90;78.50;;;;;;5072851;28;20079;-73
2022/09/09 00:53:04;;;;;;;4.05;1.50;;;16.80;78.30;;;;;;5062205;28;20025;-73
2022/09/09 00:56:09;;;;;;;3.03;1.63;;;16.70;78.80;;;;;;5072950;28;20055;-73
2022/09/09 00:58:34;;;;;;;3.42;1.80;;;16.60;78.70;;;;;;5069386;28;20045;-73
2022/09/09 01:01:07;;;;;;;2.00;1.67;;;16.60;79.00;;;;;;5076532;28;20025;-72
2022/09/09 01:03:41;;;;;;;3.58;1.60;;;16.60;79.00;;;;;;5076524;28;20112;-73
2022/09/09 01:06:31;;;;;;;2.17;1.52;;;16.70;78.70;;;;;;5076442;28;20029;-73
2022/09/09 01:09:32;;;;;;;2.35;1.50;;;16.70;78.70;;;;;;5076494;28;20052;-73
2022/09/09 01:12:05;;;;;;;3.00;1.80;;;16.70;78.50;;;;;;5076309;28;20029;-73
2022/09/09 01:14:34;;;;;;;2.13;1.45;;;16.70;78.70;;;;;;5076426;28;20021;-73
2022/09/09 01:17:08;;;;;;;2.47;1.52;;;16.50;78.70;;;;;;5076239;28;20021;-73
2022/09/09 01:19:41;;;;;;;2.20;1.50;;;16.50;79.00;;;;;;5075203;28;20013;-73
2022/09/09 01:22:26;;;;;;;4.80;1.98;;;16.40;79.00;;;;;;5076308;28;20034;-73
2022/09/09 01:25:17;;;;;;;2.65;1.77;;;16.40;79.30;;;;;;5076201;28;20036;-73
2022/09/09 01:27:44;;;;;;;2.80;1.80;;;16.40;79.30;;;;;;5076082;28;20021;-73
2022/09/09 01:30:14;;;;;;;3.33;1.55;;;16.30;79.50;;;;;;5075928;28;20025;-73
2022/09/09 01:32:42;;;;;;;5.05;1.90;;;16.30;79.40;;;;;;5075945;28;20017;-72
2022/09/09 01:35:12;;;;;;;2.67;1.73;;;16.20;79.80;;;;;;5075861;28;20032;-73
2022/09/09 01:37:38;;;;;;;2.55;1.80;;;16.10;80.20;;;;;;5075892;28;20044;-73
2022/09/09 01:40:04;;;;;;;2.83;1.90;;;16.10;80.60;;;;;;5074785;28;20032;-73
2022/09/09 01:42:30;;;;;;;3.40;1.77;;;16.10;80.70;;;;;;5075881;28;20039;-73
2022/09/09 01:44:56;;;;;;;5.30;1.70;;;16.00;80.70;;;;;;5075650;28;20048;-73
2022/09/09 01:47:21;;;;;;;4.05;1.77;;;16.00;81.40;;;;;;5075679;28;20017;-73
2022/09/09 01:49:47;;;;;;;4.25;1.90;;;15.90;82.10;;;;;;5075625;28;20375;-73
2022/09/09 01:52:13;;;;;;;2.38;1.60;;;15.80;82.30;;;;;;5075585;28;20025;-73
2022/09/09 01:54:39;;;;;;;2.92;1.80;;;15.80;82.90;;;;;;5074521;28;20055;-73
2022/09/09 01:57:22;;;;;;;4.45;1.85;;;15.80;83.80;;;;;;5075517;28;20032;-73
2022/09/09 02:00:21;;;;;;;4.68;1.88;;;15.90;82.90;;;;;;5075420;28;20034;-73
2022/09/09 02:03:06;;;;;;;4.22;1.77;;;16.00;82.40;;;;;;5063488;28;20096;-73
2022/09/09 02:05:52;;;;;;;3.55;1.90;;;15.90;82.40;;;;;;5075144;28;20103;-73
2022/09/09 02:08:28;;;;;;;3.45;2.05;;;15.90;82.60;;;;;;5075307;28;20045;-73
2022/09/09 02:11:16;;;;;;;3.25;1.70;;;15.90;82.50;;;;;;5074897;28;20041;-74
2022/09/09 02:13:45;;;;;;;3.78;1.90;;;15.90;82.50;;;;;;5075381;28;20028;-74
2022/09/09 02:16:23;;;;;;;2.72;1.63;;;15.90;82.30;;;;;;5075126;28;20036;-74
2022/09/09 02:19:00;;;;;;;6.32;2.20;;;15.90;82.40;;;;;;5075128;28;20024;-74
2022/09/09 02:21:28;;;;;;;2.97;1.90;;;15.90;83.00;;;;;;5075224;28;20051;-74
2022/09/09 02:23:57;;;;;;;3.25;2.22;;;15.90;83.00;;;;;;5074942;28;20025;-74
2022/09/09 02:26:25;;;;;;;5.03;2.20;;;15.90;83.30;;;;;;5074869;28;20025;-74
2022/09/09 02:28:54;;;;;;;5.20;2.20;;;15.80;83.50;;;;;;5074835;28;20017;-74
2022/09/09 02:31:22;;;;;;;4.28;1.88;;;15.80;83.50;;;;;;5074877;28;20023;-73
2022/09/09 02:33:54;;;;;;;4.20;1.98;;;15.90;83.50;;;;;;5074780;28;20025;-74
2022/09/09 02:36:22;;;;;;;4.35;1.70;;;16.00;83.30;;;;;;5074818;28;20025;-74
2022/09/09 02:38:50;;;;;;;3.70;1.85;;;16.10;82.90;;;;;;5074679;28;20047;-73
2022/09/09 02:41:21;;;;;;;2.65;1.90;;;16.10;82.60;;;;;;5073694;28;20020;-73
2022/09/09 02:43:47;;;;;;;3.08;1.90;;;16.10;82.40;;;;;;5074831;28;20029;-73
2022/09/09 02:46:32;;;;;;;4.13;2.13;;;16.20;82.50;;;;;;5073440;28;20075;-74
2022/09/09 02:49:05;;;;;;;3.97;2.15;;;16.20;82.20;;;;;;5074672;28;20017;-74
2022/09/09 02:51:52;;;;;;;3.88;1.85;;;16.10;82.20;;;;;;5074490;28;20028;-74
2022/09/09 02:54:36;;;;;;;3.17;2.00;;;16.20;82.10;;;;;;5074579;28;20055;-74
2022/09/09 02:57:34;;;;;;;4.75;2.17;;;16.10;82.30;;;;;;5074355;28;20103;-74
2022/09/09 03:00:01;;;;;;;4.05;1.90;;;16.00;82.50;;;;;;5062425;28;20045;-74
2022/09/09 03:02:27;;;;;;;3.85;2.22;;;16.00;82.60;;;;;;5074236;28;20035;-74
2022/09/09 03:04:52;;;;;;;4.80;2.05;;;16.10;82.40;;;;;;5073928;28;20499;-74
2022/09/09 03:07:19;;;;;;;4.05;1.90;;;16.10;82.20;;;;;;5073356;28;20033;-74
2022/09/09 03:09:45;;;;;;;6.28;2.20;;;16.20;82.40;;;;;;5074114;28;20021;-74
2022/09/09 03:12:11;;;;;;;4.00;2.05;;;16.20;82.20;;;;;;5074040;28;20029;-73
2022/09/09 03:14:37;;;;;;;5.50;2.10;;;16.20;82.10;;;;;;5074021;28;20017;-73
2022/09/09 03:17:05;;;;;;;2.83;1.95;;;16.10;82.40;;;;;;5073972;28;20021;-74
2022/09/09 03:19:31;;;;;;;6.20;2.35;;;16.20;82.30;;;;;;5074094;28;20021;-74
2022/09/09 03:22:00;;;;;;;3.28;2.00;;;16.20;82.00;;;;;;5073082;28;20021;-74
2022/09/09 03:24:25;;;;;;;5.90;2.10;;;16.20;81.90;;;;;;5073861;28;20104;-73
2022/09/09 03:26:51;;;;;;;5.65;2.17;;;16.30;81.90;;;;;;5073688;28;20029;-74
2022/09/09 03:29:18;;;;;;;4.32;2.10;;;16.20;82.10;;;;;;5072601;28;20125;-74
2022/09/09 03:31:44;;;;;;;2.90;1.77;;;16.20;82.50;;;;;;5072706;28;20031;-73
2022/09/09 03:34:10;;;;;;;4.63;2.28;;;16.20;82.40;;;;;;5073824;28;20021;-73
2022/09/09 03:36:35;;;;;;;4.35;2.30;;;16.20;82.60;;;;;;5073631;28;20040;-74
2022/09/09 03:39:02;;;;;;;5.68;2.10;;;16.20;82.60;;;;;;5073577;28;20021;-74
2022/09/09 03:41:29;;;;;;;4.28;2.42;;;16.30;82.40;;;;;;5073571;28;20079;-74
2022/09/09 03:43:55;;;;;;;5.70;1.98;;;16.30;82.30;;;;;;5073536;28;20080;-73
2022/09/09 03:46:23;;;;;;;5.25;2.15;;;16.30;83.40;;;;;;5073427;28;20055;-73
2022/09/09 03:48:49;;;;;;;3.88;2.35;;;16.30;82.40;;;;;;5073438;28;20017;-74
2022/09/09 03:51:15;;;;;;;4.07;2.20;;;16.30;82.50;;;;;;5073416;28;20031;-73
2022/09/09 03:53:42;;;;;;;4.50;2.00;;;16.30;82.60;;;;;;5073547;28;20017;-74
2022/09/09 03:56:09;;;;;;;5.90;2.30;;;16.30;82.60;;;;;;5073308;28;20031;-73
2022/09/09 03:58:36;;;;;;;4.55;2.05;;;16.40;82.50;;;;;;5073498;28;20021;-74
2022/09/09 04:01:05;;;;;;;7.68;2.13;;;16.40;82.60;;;;;;5073287;28;20112;-74
2022/09/09 04:03:31;;;;;;;4.50;2.33;;;16.40;82.60;;;;;;5073123;28;20081;-73
2022/09/09 04:05:59;;;;;;;6.28;2.38;;;16.40;82.50;;;;;;5072398;28;20051;-74
2022/09/09 04:08:25;;;;;;;4.82;2.10;;;16.50;82.50;;;;;;5073231;28;20084;-73
2022/09/09 04:10:51;;;;;;;4.75;2.40;;;16.50;82.50;;;;;;5072233;28;20040;-74
2022/09/09 04:13:19;;;;;;;3.22;2.00;;;16.50;82.50;;;;;;5073179;28;20044;-74
2022/09/09 04:15:57;;;;;;;6.40;2.20;;;16.40;82.90;;;;;;5073158;28;20025;-73
2022/09/09 04:18:23;;;;;;;5.72;2.47;;;16.40;83.00;;;;;;5073157;28;20055;-74
2022/09/09 04:20:51;;;;;;;5.70;2.63;;;16.40;83.10;;;;;;5073074;28;20108;-74
2022/09/09 04:23:20;;;;;;;5.60;1.92;;;16.40;83.70;;;;;;5073071;28;20025;-74
2022/09/09 04:25:48;;;;;;;7.78;2.40;;;16.30;83.60;;;;;;5072995;28;20029;-74
2022/09/09 04:28:15;;;;;;;4.80;2.13;;;16.30;84.10;;;;;;5072980;28;20104;-74
2022/09/09 04:30:41;;;;;;;3.78;2.15;;;16.30;84.30;;;;;;5072982;28;20043;-74
2022/09/09 04:33:09;;;;;;;6.82;2.17;;;16.40;84.60;;;;;;5074649;28;20021;-74
2022/09/09 04:35:35;;;;;;;4.80;2.03;;;16.40;84.90;;;;;;5077010;28;20048;-74
2022/09/09 04:38:02;;;;;;;5.00;2.13;;;16.30;85.00;;;;;;5076966;28;20029;-74
2022/09/09 04:40:29;;;;;;;3.17;2.63;;;16.30;85.20;;;;;;5076928;28;20033;-74
2022/09/09 04:42:55;;;;;;;5.75;1.92;;;16.20;85.50;;;;;;5076921;28;20025;-74
2022/09/09 04:45:21;;;;;;;4.57;2.47;;;16.20;85.70;;;;;;5076769;28;20028;-74
2022/09/09 04:47:46;;;;;;;5.53;2.50;;;16.30;86.00;;;;;;5076802;28;20107;-74
2022/09/09 04:50:12;;;;;;;7.97;2.10;;;16.30;85.90;;;;;;5076753;28;20067;-74
2022/09/09 04:52:38;;;;;;;4.15;2.05;;;16.30;85.60;;;;;;5076851;28;20097;-74
2022/09/09 04:55:04;;;;;;;4.22;2.38;;;16.30;85.80;;;;;;5076671;28;20037;-73
2022/09/09 04:57:31;;;;;;;8.93;1.92;;;16.30;86.10;;;;;;5076621;28;20077;-74
2022/09/09 04:59:57;;;;;;;4.28;1.95;;;16.30;85.90;;;;;;5076642;28;20024;-74
2022/09/09 05:02:23;;;;;;;4.03;2.00;;;16.30;85.90;;;;;;5076530;28;20450;-74
2022/09/09 05:04:49;;;;;;;4.90;2.10;;;16.20;86.30;;;;;;5075271;28;20083;-74
2022/09/09 05:07:15;;;;;;;6.38;2.28;;;16.20;86.20;;;;;;5076455;28;20025;-74
2022/09/09 05:09:41;;;;;;;5.82;2.17;;;16.30;86.00;;;;;;5076395;28;20104;-74
2022/09/09 05:12:07;;;;;;;5.90;2.28;;;16.30;86.10;;;;;;5076336;28;20017;-74
2022/09/09 05:14:33;;;;;;;5.07;2.15;;;16.30;86.00;;;;;;5076295;28;20025;-73
2022/09/09 05:16:59;;;;;;;6.55;1.88;;;16.30;85.70;;;;;;5075236;28;20044;-74
2022/09/09 05:19:24;;;;;;;6.43;2.28;;;16.30;85.90;;;;;;5076226;28;20037;-74
2022/09/09 05:21:50;;;;;;;7.28;2.53;;;16.30;86.20;;;;;;5058475;28;20021;-74
2022/09/09 05:24:16;;;;;;;4.85;1.70;;;16.30;86.20;;;;;;5075148;28;20037;-74
2022/09/09 05:26:43;;;;;;;4.72;2.30;;;16.30;86.10;;;;;;5076004;28;20036;-74
2022/09/09 05:29:08;;;;;;;3.38;1.88;;;16.30;86.00;;;;;;5075981;28;20021;-74
2022/09/09 05:31:34;;;;;;;6.28;1.92;;;16.30;86.00;;;;;;5058504;28;20051;-74
2022/09/09 05:34:00;;;;;;;4.07;2.17;;;16.30;86.20;;;;;;5075927;28;20029;-74
2022/09/09 05:36:26;;;;;;;8.32;2.47;;;16.30;86.20;;;;;;5075893;28;20045;-74
2022/09/09 05:38:53;;;;;;;4.97;2.00;;;16.30;86.30;;;;;;5075870;28;20033;-74
2022/09/09 05:41:19;;;;;;;3.58;2.00;;;16.30;86.50;;;;;;5075818;28;20022;-75
2022/09/09 05:43:49;;;;;;;6.35;2.00;;;16.30;86.70;;;;;;5075388;28;20108;-74
2022/09/09 05:46:14;;;;;;;5.40;1.90;;;16.30;87.10;;;;;;5075253;28;20027;-74
2022/09/09 05:48:42;;;;;;;3.72;2.00;;;16.30;87.10;;;;;;5075678;28;20048;-75
2022/09/09 05:51:13;;;;;;;8.93;2.67;;;16.20;87.00;;;;;;5074658;28;20092;-74
2022/09/09 05:53:39;;;;;;;4.93;1.80;;;16.30;87.10;;;;;;5075599;28;20029;-73
2022/09/09 05:56:10;;;;;;;6.78;2.33;;;16.30;87.10;;;;;;5075546;28;20036;-74
2022/09/09 05:58:36;;;;;;;6.83;2.13;;;16.30;86.70;;;;;;5075525;28;20031;-73
2022/09/09 06:01:07;;;;;;;8.05;2.47;;;16.30;87.00;;;;;;5075541;28;20040;-74
2022/09/09 06:03:35;;;;;;;5.95;2.03;;;16.30;87.30;;;;;;5075297;28;20107;-74
2022/09/09 06:06:05;;;;;;;6.13;1.85;;;16.30;87.30;;;;;;5075294;28;20027;-74
2022/09/09 06:08:31;;;;;;;4.05;2.05;;;16.30;88.00;;;;;;5074260;28;20025;-74
2022/09/09 06:11:09;;;;;;;7.20;2.47;;;16.30;87.00;;;;;;5074271;28;20017;-74
2022/09/09 06:13:36;;;;;;;5.07;2.10;;;16.30;86.90;;;;;;5075248;28;20021;-74
2022/09/09 06:16:04;;;;;;;4.43;1.90;;;16.30;86.90;;;;;;5075160;28;20025;-74
2022/09/09 06:18:29;;;;;;;5.63;2.40;;;16.30;87.10;;;;;;5075115;28;20032;-74
2022/09/09 06:21:00;;;;;;;6.20;2.35;;;16.30;87.20;;;;;;5075073;28;20036;-74
2022/09/09 06:23:27;;;;;;;5.43;1.85;;;16.40;87.00;;;;;;5075056;28;20051;-74
2022/09/09 06:26:02;;;;;;;3.13;1.98;;;16.40;87.10;;;;;;5074926;28;20026;-74
2022/09/09 06:28:27;;;;;;;8.25;2.35;;;16.30;87.30;;;;;;5074883;28;20549;-74
2022/09/09 06:31:01;;;;;;;5.85;2.30;;;16.30;87.50;;;;;;5074858;28;20033;-74
2022/09/09 06:33:30;;;;;;;5.72;2.00;;;16.40;87.50;;;;;;5074828;28;20021;-74
2022/09/09 06:35:56;;;;;;;6.28;2.35;;;16.40;87.40;;;;;;5073773;28;20609;-74
2022/09/09 06:38:23;;;;;;;6.57;2.20;;;16.40;87.90;;;;;;5074742;28;20025;-74
2022/09/09 06:40:56;;;;;;;6.43;2.20;;;16.50;87.60;;;;;;5074702;28;20042;-74
2022/09/09 06:43:22;;;;;;;11.68;3.05;;;16.50;87.70;;;;;;5074599;28;20021;-74
2022/09/09 06:45:57;;;;;;;4.72;2.20;;;16.50;87.40;;;;;;5073523;28;20035;-74
2022/09/09 06:48:25;;;;;;;6.97;2.90;;;16.60;87.50;;;;;;5074555;28;20472;-75
2022/09/09 06:50:59;;;;;;;7.70;2.60;;;16.60;87.40;;;;;;5074490;28;20025;-74
2022/09/09 06:53:25;;;;;;;5.85;2.90;;;16.70;87.60;;;;;;5074483;28;20043;-74
2022/09/09 06:55:51;;;;;;;5.93;2.50;;;16.70;87.60;;;;;;5074345;28;20531;-74
2022/09/09 06:58:17;;;;;;;5.20;2.42;;;16.80;87.10;;;;;;5074356;28;20131;-74
2022/09/09 07:00:42;;;;;;;6.85;2.90;;;16.80;86.70;;;;;;5074326;28;20052;-74
2022/09/09 07:03:10;;;;;;;6.32;2.58;;;16.90;86.20;;;;;;5073396;28;20032;-74
2022/09/09 07:05:36;;;;;;;5.47;2.60;;;16.80;86.00;;;;;;5072979;28;20052;-74
2022/09/09 07:08:02;;;;;;;7.70;2.88;;;16.80;86.80;;;;;;5074213;28;20026;-74
2022/09/09 07:10:28;;;;;;;5.80;2.40;;;17.00;87.30;;;;;;5074074;28;20033;-74
2022/09/09 07:12:54;;;;;;;7.65;2.60;;;16.90;86.00;;;;;;5074081;28;20029;-74
2022/09/09 07:15:21;;;;;;;9.80;2.63;;;16.90;86.00;;;;;;5074044;28;20070;-74
2022/09/09 07:17:47;;;;;;;7.38;2.50;;;16.90;85.50;;;;;;5074170;28;20045;-74
2022/09/09 07:20:14;;;;;;;7.65;3.10;;;16.90;84.90;;;;;;5073908;28;20071;-74
2022/09/09 07:22:40;;;;;;;7.28;2.70;;;17.00;85.20;;;;;;5072919;28;20040;-74
2022/09/09 07:25:07;;;;;;;5.50;2.53;;;16.90;84.90;;;;;;5073927;28;20020;-74
2022/09/09 07:27:32;;;;;;;5.95;2.30;;;17.00;85.60;;;;;;5073807;28;20029;-74
2022/09/09 07:29:58;;;;;;;6.22;2.88;;;17.00;85.80;;;;;;5073701;28;20025;-74
2022/09/09 07:32:25;;;;;;;6.65;2.53;;;17.10;85.50;;;;;;5072942;28;20025;-74
2022/09/09 07:34:51;;;;;;;6.10;2.15;;;17.20;85.30;;;;;;5073667;28;20013;-74
2022/09/09 07:37:17;;;;;;;5.88;2.50;;;17.30;84.10;;;;;;5073707;28;20043;-74
2022/09/09 07:39:43;;;;;;;4.28;2.13;;;17.20;83.50;;;;;;5073574;28;20046;-74
2022/09/09 07:42:11;;;;;;;9.32;2.75;;;17.20;84.40;;;;;;5073603;28;20020;-74
2022/09/09 07:44:36;;;;;;;5.03;2.47;;;17.30;83.60;;;;;;5073540;28;20048;-74
2022/09/09 07:47:03;;;;;;;7.63;2.53;;;17.30;83.30;;;;;;5072527;28;20036;-74
2022/09/09 07:49:28;;;;;;;4.72;2.50;;;17.30;83.50;;;;;;5073435;28;20025;-74
2022/09/09 07:51:54;;;;;;;7.60;2.40;;;17.40;83.50;;;;;;5073543;28;20033;-74
2022/09/09 07:54:23;;;;;;;5.25;2.53;;;17.40;83.50;;;;;;5073379;28;20097;-75
2022/09/09 07:56:49;;;;;;;7.85;2.75;;;17.50;82.90;;;;;;5073361;28;20051;-74
2022/09/09 07:59:15;;;;;;;6.30;2.33;;;17.60;82.10;;;;;;5073320;28;20036;-74
2022/09/09 08:01:45;;;;;;;9.05;2.30;;;17.70;81.90;;;;;;5073301;28;20029;-74
2022/09/09 08:04:17;;;;;;;5.03;1.92;;;17.80;81.70;;;;;;5073135;28;20052;-74
2022/09/09 08:06:46;;;;;;;4.47;2.03;;;17.90;81.80;;;;;;5072160;28;20051;-74
2022/09/09 08:09:11;;;;;;;7.70;2.75;;;18.00;81.00;;;;;;5072907;28;20013;-74
2022/09/09 08:11:38;;;;;;;6.70;2.10;;;18.10;80.00;;;;;;5073201;28;20017;-74
2022/09/09 08:14:04;;;;;;;5.82;2.10;;;18.10;79.90;;;;;;5073147;28;20025;-74
2022/09/09 08:16:32;;;;;;;6.25;1.80;;;18.20;79.90;;;;;;5073146;28;20055;-74
2022/09/09 08:18:59;;;;;;;3.80;1.80;;;18.10;78.90;;;;;;5072185;28;20075;-74
2022/09/09 08:21:28;;;;;;;7.32;2.00;;;18.00;78.20;;;;;;5073113;28;20032;-75
2022/09/09 08:23:55;;;;;;;3.95;1.67;;;17.90;78.70;;;;;;5073167;28;20032;-74
2022/09/09 08:26:23;;;;;;;2.83;1.58;;;17.90;78.60;;;;;;5073020;28;20040;-74
2022/09/09 08:28:53;;;;;;;5.90;1.90;;;18.00;79.20;;;;;;5073007;28;20131;-74
2022/09/09 08:31:25;;;;;;;7.07;1.88;;;18.00;78.60;;;;;;5073050;28;20021;-74
2022/09/09 08:33:50;;;;;;;6.30;2.22;;;18.10;78.10;;;;;;5073044;28;20025;-74
2022/09/09 08:36:18;;;;;;;7.97;1.83;;;18.10;78.50;;;;;;5073096;28;20044;-74
2022/09/09 08:38:48;;;;;;;3.97;1.55;;;18.00;78.20;;;;;;5073059;28;20025;-74
2022/09/09 08:41:35;;;;;;;4.78;1.83;;;18.10;78.20;;;;;;5073089;28;20017;-74
2022/09/09 08:44:17;;;;;;;4.85;1.63;;;18.10;77.90;;;;;;5073053;28;20059;-74
2022/09/09 08:47:22;;;;;;;3.60;1.87;;;18.10;77.70;;;;;;5072876;28;20025;-74
2022/09/09 08:49:58;;;;;;;6.40;1.77;;;18.00;78.60;;;;;;5073037;28;20029;-74
2022/09/09 08:52:40;;;;;;;3.83;1.90;;;18.00;78.20;;;;;;5072902;28;20051;-74
2022/09/09 08:55:43;;;;;;;4.47;1.58;;;18.20;80.00;;;;;;5072824;28;20055;-74
2022/09/09 08:58:13;;;;;;;4.70;1.63;;;18.20;77.90;;;;;;5066349;28;20033;-74
2022/09/09 09:01:08;;;;;;;8.52;1.85;;;18.20;77.90;;;;;;5072707;28;20025;-75
2022/09/09 09:03:53;;;;;;;4.13;1.40;;;18.20;76.80;;;;;;5070606;28;20120;-74
2022/09/09 09:06:58;;;;;;;3.17;1.30;;;18.30;77.70;;;;;;5072587;28;20040;-74
2022/09/09 09:09:31;;;;;;;5.95;1.70;;;18.30;77.10;;;;;;5072703;28;20017;-75
2022/09/09 09:12:00;;;;;;;6.35;1.60;;;18.30;76.70;;;;;;5072674;28;20024;-74
2022/09/09 09:14:30;;;;;;;6.75;1.77;;;18.30;77.20;;;;;;5072623;28;20013;-74
2022/09/09 09:17:06;;;;;;;6.55;1.50;;;18.30;77.40;;;;;;5072618;28;20021;-74
2022/09/09 09:19:34;;;;;;;5.18;1.60;;;18.50;77.00;;;;;;5073171;28;20092;-74
2022/09/09 09:21:59;;;;;;;6.28;1.40;;;18.40;76.00;;;;;;5076252;28;20017;-74
2022/09/09 09:25:14;;;;;;;5.00;1.75;;;18.40;75.10;;;;;;5076200;28;20032;-74
2022/09/09 09:27:49;;;;;;;7.88;1.52;;;18.30;76.00;;;;;;5071226;28;20052;-74
2022/09/09 09:30:16;;;;;;;14.23;1.90;;;18.40;76.40;;;;;;5076030;28;20021;-74
2022/09/09 09:32:55;;;;;;;5.35;1.42;;;18.40;76.20;;;;;;5075046;28;20021;-74
2022/09/09 09:35:21;;;;;;;5.78;1.58;;;18.40;76.20;;;;;;5076042;28;20025;-74
2022/09/09 09:37:48;;;;;;;2.45;1.20;;;18.30;75.60;;;;;;5075908;28;20025;-74
2022/09/09 09:40:17;;;;;;;4.70;1.52;;;18.30;75.20;;;;;;5076064;28;20041;-74
2022/09/09 09:42:54;;;;;;;4.30;1.50;;;18.20;75.50;;;;;;5074879;28;20025;-74
2022/09/09 09:45:29;;;;;;;6.75;2.30;;;18.20;76.00;;;;;;5074703;28;20052;-74
2022/09/09 09:48:21;;;;;;;5.65;1.35;;;18.20;75.90;;;;;;5075763;28;20017;-73
2022/09/09 09:50:52;;;;;;;10.57;1.50;;;18.30;76.40;;;;;;5074659;28;20551;-74
2022/09/09 09:53:23;;;;;;;6.35;1.50;;;18.30;76.30;;;;;;5075655;28;20032;-74
2022/09/09 09:55:58;;;;;;;4.10;1.48;;;18.40;76.70;;;;;;5075663;28;20108;-74
2022/09/09 09:58:33;;;;;;;4.93;1.80;;;18.50;75.50;;;;;;5075530;28;20086;-74
2022/09/09 10:01:00;;;;;;;4.78;1.27;;;18.40;75.50;;;;;;5074507;28;20036;-74
2022/09/09 10:03:30;;;;;;;6.85;2.00;;;18.40;74.60;;;;;;5075496;28;20027;-74
2022/09/09 10:05:56;;;;;;;5.90;1.65;;;18.40;75.30;;;;;;5075384;28;20055;-74
2022/09/09 10:08:24;;;;;;;4.72;1.65;;;18.40;75.80;;;;;;5075354;28;20021;-74
2022/09/09 10:11:04;;;;;;;5.15;1.60;;;18.40;75.70;;;;;;5074360;28;20021;-74
2022/09/09 10:13:55;;;;;;;8.68;2.10;;;18.50;75.50;;;;;;5075287;28;20029;-74
2022/09/09 10:16:45;;;;;;;5.47;1.55;;;18.40;75.00;;;;;;5075201;28;20047;-74
2022/09/09 10:19:19;;;;;;;5.85;1.52;;;18.40;75.30;;;;;;5075201;28;20024;-74
2022/09/09 10:22:00;;;;;;;5.85;1.95;;;18.40;75.00;;;;;;5075158;28;20036;-75
2022/09/09 10:25:03;;;;;;;6.47;1.73;;;18.40;75.30;;;;;;5075113;28;20033;-74
2022/09/09 10:27:53;;;;;;;6.50;1.23;;;18.50;75.80;;;;;;5074994;28;20035;-74
2022/09/09 10:30:33;;;;;;;5.22;1.30;;;18.50;75.20;;;;;;5074721;28;20074;-74
2022/09/09 10:33:27;;;;;;;4.03;1.58;;;18.50;75.90;;;;;;5074931;28;20021;-74
2022/09/09 10:36:14;;;;;;;5.10;1.65;;;18.60;74.90;;;;;;5074877;28;20059;-74
2022/09/09 10:38:47;;;;;;;4.85;1.50;;;18.60;74.20;;;;;;5074790;28;20021;-74
2022/09/09 10:41:19;;;;;;;3.40;1.40;;;18.60;75.30;;;;;;5074762;28;20013;-74
2022/09/09 10:43:47;;;;;;;;;;;18.50;75.50;;;;;;5075293;28;20063;-74
2022/09/09 10:46:17;;;;;;;5.35;1.50;;;18.40;75.50;;;;;;5074527;28;19908;-74
2022/09/09 10:48:45;;;;;;;5.20;1.42;;;18.20;75.30;;;;;;5073528;28;20029;-74
2022/09/09 10:51:11;;;;;;;6.63;1.40;;;18.20;75.60;;;;;;5074525;28;20032;-74
2022/09/09 10:53:49;;;;;;;5.22;1.63;;;18.20;75.00;;;;;;5073463;28;20141;-74
2022/09/09 10:56:18;;;;;;;4.80;1.50;;;18.30;75.60;;;;;;5074613;28;20025;-74
2022/09/09 10:58:44;;;;;;;5.68;1.30;;;18.30;75.80;;;;;;5074382;28;20032;-75
2022/09/09 11:01:18;;;;;;;3.70;1.13;;;18.30;76.70;;;;;;5074347;28;20025;-74
2022/09/09 11:03:49;;;;;;;3.92;1.63;;;18.10;78.60;;;;;;5074161;28;20017;-75
2022/09/09 11:06:20;;;;;;;5.80;2.03;;;18.00;79.20;;;;;;5074265;28;20021;-75
2022/09/09 11:08:47;;;;;;;4.30;1.77;;;18.00;80.50;;;;;;5074233;28;20013;-75
2022/09/09 11:11:24;;;;;;;6.97;2.00;;;17.90;80.70;;;;;;5074158;28;20025;-74
2022/09/09 11:13:54;;;;;;;5.97;1.73;;;17.90;81.00;;;;;;5074257;28;20081;-75
2022/09/09 11:16:38;;;;;;;6.50;1.95;;;17.80;81.50;;;;;;5073002;28;20025;-75
2022/09/09 11:19:15;;;;;;;5.38;2.05;;;17.80;81.80;;;;;;5074167;28;20025;-74
2022/09/09 11:21:47;;;;;;;3.40;1.67;;;17.80;82.50;;;;;;5073980;28;20025;-75
2022/09/09 11:24:24;;;;;;;5.15;2.03;;;17.80;82.60;;;;;;5074107;28;20036;-75
2022/09/09 11:27:06;;;;;;;4.65;2.00;;;17.80;83.60;;;;;;5073986;28;20095;-75
2022/09/09 11:29:47;;;;;;;;;;;17.70;84.10;;;;;;5074237;28;20391;-75
2022/09/09 11:32:20;;;;;;;4.35;1.70;;;17.70;84.90;;;;;;5073928;28;19905;-75
2022/09/09 11:35:17;;;;;;;4.88;1.90;;;17.70;85.00;;;;;;5073841;28;20029;-74
2022/09/09 11:37:45;;;;;;;5.03;2.13;;;17.70;85.90;;;;;;5073614;28;20017;-75
2022/09/09 11:40:23;;;;;;;7.55;2.28;;;17.70;86.30;;;;;;5073683;28;20025;-74
2022/09/09 11:43:00;;;;;;;4.25;2.05;;;17.80;86.70;;;;;;5072898;28;20025;-75
2022/09/09 11:45:29;;;;;;;5.43;2.13;;;17.80;86.50;;;;;;5073555;28;20053;-74
2022/09/09 11:48:00;;;;;;;6.15;2.88;;;17.80;86.40;;;;;;5073662;28;20047;-74
2022/09/09 11:50:25;;;;;;;5.50;2.45;;;17.90;86.50;;;;;;5073504;28;20028;-74
2022/09/09 11:53:03;;;;;;;6.63;2.45;;;18.00;86.60;;;;;;5073476;28;20028;-75
2022/09/09 11:55:33;;;;;;;5.20;2.38;;;18.10;86.70;;;;;;5073435;28;20033;-75
2022/09/09 11:58:11;;;;;;;4.22;1.95;;;18.20;86.70;;;;;;5073448;28;20025;-75
2022/09/09 12:00:49;;;;;;;4.63;2.10;;;18.30;86.50;;;;;;5073451;28;20032;-74
2022/09/09 12:03:35;;;;;;;4.28;1.70;;;18.40;84.70;;;;;;5073232;28;20044;-75
2022/09/09 12:06:26;;;;;;;5.35;1.73;;;18.50;84.70;;;;;;5073202;28;20060;-74
2022/09/09 12:08:57;;;;;;;4.05;1.50;;;18.40;83.40;;;;;;5073259;28;20021;-74
2022/09/09 12:11:28;;;;;;;6.65;1.65;;;18.40;83.10;;;;;;5073459;28;20021;-74
2022/09/09 12:13:56;;;;;;;4.68;1.25;;;18.40;82.60;;;;;;5073357;28;20029;-74
2022/09/09 12:16:37;;;;;;;3.60;1.75;;;18.40;81.80;;;;;;5073161;28;20021;-74
2022/09/09 12:19:21;;;;;;;2.50;1.30;;;18.40;82.00;;;;;;5072206;28;20032;-74
2022/09/09 12:22:21;;;;;;;4.40;2.10;;;18.30;82.00;;;;;;5073154;28;20033;-74
2022/09/09 12:24:51;;;;;;;2.90;1.45;;;18.30;82.50;;;;;;5073279;28;20113;-74
2022/09/09 12:27:27;;;;;;;3.88;1.90;;;18.30;82.70;;;;;;5072347;28;20025;-74
2022/09/09 12:30:10;;;;;;;7.07;1.70;;;18.30;82.80;;;;;;5073057;28;20081;-74
2022/09/09 12:32:37;;;;;;;3.67;1.83;;;18.30;82.90;;;;;;5073050;28;20029;-74
2022/09/09 12:35:20;;;;;;;3.95;1.80;;;18.20;82.80;;;;;;5072969;28;20022;-74
2022/09/09 12:37:58;;;;;;;5.03;2.08;;;18.20;83.00;;;;;;5073058;28;20028;-74
2022/09/09 12:40:31;;;;;;;3.88;2.40;;;18.30;83.80;;;;;;5073010;28;20017;-74
2022/09/09 12:42:56;;;;;;;;;;;18.30;83.70;;;;;;5073402;28;20021;-74
2022/09/09 12:45:26;;;;;;;3.95;2.13;;;18.40;84.60;;;;;;5072979;28;19915;-74
2022/09/09 12:48:00;;;;;;;3.83;2.13;;;18.50;82.80;;;;;;5072872;28;20020;-74
2022/09/09 12:50:29;;;;;;;3.47;2.35;;;18.70;83.50;;;;;;5072919;28;20084;-75
2022/09/09 12:53:02;;;;;;;5.95;2.17;;;18.80;83.10;;;;;;5072852;28;20028;-74
2022/09/09 12:55:33;;;;;;;4.10;2.05;;;18.80;80.60;;;;;;5076791;28;20017;-74
2022/09/09 12:58:00;;;;;;;3.85;2.42;;;18.80;81.50;;;;;;5076729;28;20025;-74
2022/09/09 13:00:27;;;;;;;5.05;2.50;;;18.80;81.30;;;;;;5076654;28;20051;-74
2022/09/09 13:02:54;;;;;;;4.95;2.58;;;18.80;81.00;;;;;;5076618;28;20487;-75
2022/09/09 13:05:24;;;;;;;6.53;2.60;;;18.90;81.20;;;;;;5076356;28;20511;-75
2022/09/09 13:07:51;;;;;;;6.03;2.33;;;18.90;81.00;;;;;;5076678;28;20017;-74
2022/09/09 13:10:29;;;;;;;5.10;2.22;;;18.90;80.00;;;;;;5076511;28;20017;-74
2022/09/09 13:12:55;;;;;;;3.40;2.00;;;18.90;80.90;;;;;;5076422;28;20080;-75